Time;durP1;ratioP1;P1;durP2;ratioP2;P2;SDS_P1;SDS_P2;PMS_P1;PMS_P2;Temp;Humidity;BMP_temperature;BMP_pressure;BME280_temperature;BME280_humidity;BME280_pressure;Samples;Min_cycle;Max_cycle;Signal;HPM_P1;HPM_P2
2022/11/07 00:00:24;;;;;;;2.28;1.20;;;;;;;8.54;100.00;97181.28;5067332;28;20048;-56
2022/11/07 00:02:51;;;;;;;2.30;1.13;;;;;;;8.62;100.00;97185.50;5065724;28;20152;-58
2022/11/07 00:05:17;;;;;;;3.38;1.10;;;;;;;8.63;100.00;97197.91;5067020;28;20113;-58
2022/11/07 00:07:44;;;;;;;2.60;1.10;;;;;;;8.69;99.86;97186.13;5067756;28;20131;-57
2022/11/07 00:10:10;;;;;;;2.25;0.95;;;;;;;8.80;98.71;97198.75;5052499;28;20072;-58
2022/11/07 00:12:37;;;;;;;2.33;0.95;;;;;;;8.83;98.66;97200.13;5047332;28;20064;-55
2022/11/07 00:15:05;;;;;;;2.15;1.13;;;;;;;8.78;99.20;97194.66;5047311;28;20069;-58
2022/11/07 00:17:31;;;;;;;2.15;0.98;;;;;;;8.78;99.26;97202.75;5053881;28;20241;-58
2022/11/07 00:19:58;;;;;;;2.85;1.13;;;;;;;8.73;99.86;97203.47;5067624;28;20359;-57
2022/11/07 00:22:24;;;;;;;2.10;0.93;;;;;;;8.73;99.83;97211.56;5066573;28;20061;-58
2022/11/07 00:24:51;;;;;;;2.08;0.90;;;;;;;8.71;100.00;97206.41;5067771;28;20119;-58
2022/11/07 00:27:17;;;;;;;3.70;1.25;;;;;;;8.71;100.00;97211.81;5066109;28;20059;-58
2022/11/07 00:29:44;;;;;;;2.50;1.10;;;;;;;8.78;99.75;97213.56;5065264;28;20044;-57
2022/11/07 00:32:10;;;;;;;2.38;1.38;;;;;;;8.78;100.00;97216.25;5070367;28;20036;-58
2022/11/07 00:34:37;;;;;;;2.40;1.17;;;;;;;8.80;100.00;97220.34;5087091;28;20137;-58
2022/11/07 00:37:03;;;;;;;2.50;1.23;;;;;;;8.79;100.00;97218.72;5087298;28;20068;-58
2022/11/07 00:39:30;;;;;;;3.10;1.25;;;;;;;8.78;100.00;97218.94;5069525;28;20041;-58
2022/11/07 00:41:56;;;;;;;3.47;1.35;;;;;;;8.76;100.00;97223.75;5046449;28;20138;-58
2022/11/07 00:44:23;;;;;;;3.80;1.10;;;;;;;8.74;100.00;97234.00;5046845;28;20072;-58
2022/11/07 00:46:50;;;;;;;2.45;0.95;;;;;;;8.81;100.00;97231.97;5046361;28;20132;-57
2022/11/07 00:49:16;;;;;;;2.65;1.00;;;;;;;8.86;100.00;97237.44;5063026;28;20064;-57
2022/11/07 00:51:42;;;;;;;2.63;1.15;;;;;;;8.82;100.00;97229.00;5066169;28;20048;-57
2022/11/07 00:54:09;;;;;;;2.33;1.00;;;;;;;8.77;100.00;97233.50;5067289;28;20436;-57
2022/11/07 00:56:36;;;;;;;2.83;1.13;;;;;;;8.78;100.00;97237.84;5066226;28;20127;-58
2022/11/07 00:59:02;;;;;;;2.47;1.20;;;;;;;8.77;100.00;97233.50;5065747;28;20503;-57
2022/11/07 01:01:32;;;;;;;1.83;0.90;;;;;;;8.81;100.00;97231.97;5065653;28;20076;-58
2022/11/07 01:06:45;;;;;;;1.75;0.85;;;;;;;8.68;100.00;97219.59;5066944;28;20488;-57
2022/11/07 01:09:18;;;;;;;1.48;0.82;;;;;;;8.70;100.00;97233.69;5060421;28;20037;-59
2022/11/07 01:11:45;;;;;;;1.55;1.05;;;;;;;8.70;100.00;97230.97;5045820;28;20079;-58
2022/11/07 01:14:15;;;;;;;3.13;1.10;;;;;;;8.68;100.00;97228.50;5046463;28;20556;-59
2022/11/07 01:16:42;;;;;;;2.33;1.10;;;;;;;8.69;100.00;97235.53;5046332;28;20481;-58
2022/11/07 01:19:09;;;;;;;1.45;0.85;;;;;;;8.70;100.00;97233.69;5053610;28;20128;-58
2022/11/07 01:21:37;;;;;;;2.65;1.10;;;;;;;8.75;100.00;97238.31;5065653;28;20112;-58
2022/11/07 01:24:05;;;;;;;2.88;1.00;;;;;;;8.78;100.00;97237.84;5066199;28;20077;-58
2022/11/07 01:26:32;;;;;;;2.42;1.00;;;;;;;8.76;100.00;97243.50;5065514;28;20142;-59
2022/11/07 01:28:59;;;;;;;2.20;1.00;;;;;;;8.78;100.00;97237.84;5066535;28;20079;-58
2022/11/07 01:31:26;;;;;;;2.45;0.80;;;;;;;8.70;100.00;97237.19;5065447;28;20075;-59
2022/11/07 01:33:52;;;;;;;1.70;0.75;;;;;;;8.76;100.00;97235.38;5065763;28;20051;-59
2022/11/07 01:36:19;;;;;;;2.00;0.82;;;;;;;8.85;100.00;97230.41;5065744;28;20105;-58
2022/11/07 01:38:47;;;;;;;1.15;0.60;;;;;;;8.82;100.00;97234.41;5063404;28;20475;-58
2022/11/07 01:41:20;;;;;;;1.90;0.80;;;;;;;8.93;100.00;97234.59;5045012;28;20058;-58
2022/11/07 01:44:00;;;;;;;3.17;1.00;;;;;;;8.94;100.00;97234.34;5062909;28;20119;-58
2022/11/07 01:46:39;;;;;;;1.55;0.80;;;;;;;8.88;100.00;97237.22;5066049;28;20582;-58
2022/11/07 01:49:22;;;;;;;2.25;0.88;;;;;;;8.83;100.00;97237.94;5066461;28;20048;-58
2022/11/07 01:51:54;;;;;;;1.45;0.80;;;;;;;8.81;100.00;97237.38;5065441;28;20411;-59
2022/11/07 01:54:25;;;;;;;2.45;0.82;;;;;;;8.80;100.00;97246.50;5065569;28;20124;-58
2022/11/07 01:56:54;;;;;;;2.53;1.00;;;;;;;8.80;100.00;97236.53;5065869;28;20496;-57
2022/11/07 01:59:24;;;;;;;3.00;0.90;;;;;;;8.81;100.00;97248.16;5066065;28;20055;-58
2022/11/07 02:01:52;;;;;;;1.97;0.80;;;;;;;8.86;100.00;97242.84;5069101;28;20032;-59
2022/11/07 02:04:20;;;;;;;1.65;0.80;;;;;;;8.83;100.00;97240.63;5090297;28;20294;-57
2022/11/07 02:06:53;;;;;;;2.47;0.82;;;;;;;8.84;100.00;97229.59;5090082;28;20075;-57
2022/11/07 02:09:20;;;;;;;3.05;0.90;;;;;;;8.86;100.00;97234.75;5073763;28;20052;-59
2022/11/07 02:11:46;;;;;;;1.75;0.90;;;;;;;8.85;100.00;97225.81;5049100;28;20049;-57
2022/11/07 02:14:16;;;;;;;3.67;0.93;;;;;;;8.97;100.00;97230.34;5049761;28;20496;-58
2022/11/07 02:16:44;;;;;;;1.27;0.70;;;;;;;9.16;100.00;97222.81;5049413;28;20084;-58
2022/11/07 02:19:42;;;;;;;1.98;0.73;;;;;;;9.15;100.00;97226.56;5057101;28;20523;-56
2022/11/07 02:22:21;;;;;;;2.00;0.88;;;;;;;9.11;100.00;97226.22;5068578;28;20091;-58
2022/11/07 02:24:52;;;;;;;1.83;0.73;;;;;;;9.09;100.00;97224.84;5069355;28;20274;-58
2022/11/07 02:27:22;;;;;;;1.42;0.70;;;;;;;9.08;100.00;97225.91;5066767;28;20098;-59
2022/11/07 02:30:03;;;;;;;1.75;0.60;;;;;;;9.10;100.00;97221.91;5069684;28;20120;-57
2022/11/07 02:32:29;;;;;;;1.40;0.77;;;;;;;9.15;100.00;97218.47;5068499;28;20095;-57
2022/11/07 02:35:02;;;;;;;1.25;0.70;;;;;;;9.12;100.00;97221.66;5069445;28;20362;-59
2022/11/07 02:37:31;;;;;;;2.13;0.77;;;;;;;9.09;100.00;97225.69;5069432;28;20127;-59
2022/11/07 02:40:00;;;;;;;1.33;0.73;;;;;;;9.06;100.00;97226.16;5056803;28;20572;-59
2022/11/07 02:42:42;;;;;;;2.00;0.73;;;;;;;9.10;100.00;97218.38;5048458;28;20589;-59
2022/11/07 02:45:17;;;;;;;;;;;;;;;9.08;100.00;97220.50;5049788;28;20053;-58
2022/11/07 02:47:44;;;;;;;1.63;0.70;;;;;;;9.05;100.00;97221.81;5057237;28;20438;-59
2022/11/07 02:50:13;;;;;;;2.47;1.05;;;;;;;9.04;100.00;97222.06;5068951;28;20036;-59
2022/11/07 02:52:40;;;;;;;2.33;1.10;;;;;;;9.03;100.00;97212.34;5067840;28;20212;-58
2022/11/07 02:55:08;;;;;;;2.78;1.10;;;;;;;9.09;100.00;97217.56;5059605;28;20076;-57
2022/11/07 02:57:34;;;;;;;2.35;0.90;;;;;;;9.16;100.00;97209.31;5064974;28;20115;-58
2022/11/07 03:00:01;;;;;;;1.75;0.88;;;;;;;9.12;100.00;97213.56;5068687;28;20044;-59
2022/11/07 03:02:27;;;;;;;2.40;0.80;;;;;;;9.10;100.00;97218.38;5067945;28;20044;-57
2022/11/07 03:04:54;;;;;;;2.13;1.00;;;;;;;9.09;100.00;97217.56;5067436;28;20072;-59
2022/11/07 03:07:20;;;;;;;3.60;0.80;;;;;;;9.10;100.00;97215.66;5068418;28;20492;-59
2022/11/07 03:09:47;;;;;;;2.13;1.05;;;;;;;9.16;100.00;97219.28;5063210;28;20141;-59
2022/11/07 03:12:13;;;;;;;3.25;1.00;;;;;;;9.21;100.00;97228.28;5063447;28;20068;-58
2022/11/07 03:14:40;;;;;;;2.08;0.95;;;;;;;9.22;100.00;97226.41;5068586;28;20049;-59
2022/11/07 03:17:07;;;;;;;1.40;0.70;;;;;;;9.19;100.00;97224.19;5068341;28;20063;-57
2022/11/07 03:19:33;;;;;;;3.85;1.20;;;;;;;9.18;100.00;97222.56;5063763;28;20167;-59
2022/11/07 03:22:00;;;;;;;5.05;1.30;;;;;;;9.20;100.00;97232.06;5068306;28;20098;-59
2022/11/07 03:24:26;;;;;;;4.13;1.38;;;;;;;9.16;100.00;97227.38;5068552;28;20108;-59
2022/11/07 03:26:52;;;;;;;1.58;0.75;;;;;;;9.16;100.00;97233.63;5063173;28;20051;-57
2022/11/07 03:29:20;;;;;;;2.78;0.93;;;;;;;9.17;100.00;97237.94;5067930;28;20040;-59
2022/11/07 03:31:46;;;;;;;4.97;1.20;;;;;;;9.18;100.00;97241.47;5067539;28;20047;-56
2022/11/07 03:34:13;;;;;;;3.00;1.00;;;;;;;9.21;100.00;97236.38;5066432;28;20469;-57
2022/11/07 03:36:39;;;;;;;3.83;1.08;;;;;;;9.05;100.00;97237.19;5066323;28;20072;-58
2022/11/07 03:39:06;;;;;;;2.65;1.17;;;;;;;8.99;100.00;97233.59;5062697;28;20216;-58
2022/11/07 03:41:33;;;;;;;3.28;1.13;;;;;;;9.09;100.00;97231.06;5047135;28;20045;-58
2022/11/07 03:43:59;;;;;;;2.72;1.10;;;;;;;9.10;100.00;97235.41;5048480;28;20120;-58
2022/11/07 03:46:26;;;;;;;4.43;1.42;;;;;;;9.16;100.00;97233.63;5051346;28;20072;-58
2022/11/07 03:48:52;;;;;;;3.15;1.23;;;;;;;9.18;100.00;97231.47;5066361;28;20451;-58
2022/11/07 03:51:18;;;;;;;2.85;1.20;;;;;;;9.32;99.47;97233.84;5067309;28;20573;-57
2022/11/07 03:53:45;;;;;;;2.70;0.95;;;;;;;9.42;98.44;97235.88;5067515;28;20716;-58
2022/11/07 03:56:12;;;;;;;3.63;1.00;;;;;;;9.42;98.32;97241.28;5067857;28;20040;-58
2022/11/07 03:58:39;;;;;;;2.67;1.10;;;;;;;9.54;97.46;97233.88;5067532;28;20083;-59
2022/11/07 04:01:05;;;;;;;3.63;1.15;;;;;;;9.56;97.27;97244.47;5067190;28;20072;-58
2022/11/07 04:03:32;;;;;;;2.75;1.10;;;;;;;9.50;97.33;97230.88;5082237;28;20123;-58
2022/11/07 04:05:58;;;;;;;1.52;0.90;;;;;;;9.42;97.87;97239.41;5087597;28;20067;-58
2022/11/07 04:08:25;;;;;;;4.03;1.30;;;;;;;9.43;97.65;97238.34;5086211;28;20361;-59
2022/11/07 04:10:51;;;;;;;3.10;1.05;;;;;;;9.38;98.00;97246.38;5047026;28;20397;-58
2022/11/07 04:17:17;;;;;;;2.80;1.08;;;;;;;9.45;97.34;97252.44;5047321;28;20079;-59
2022/11/07 04:18:57;;;;;;;3.20;1.00;;;;;;;9.57;96.61;97256.91;5053041;28;20094;-55
2022/11/07 04:21:23;;;;;;;3.05;1.10;;;;;;;9.68;95.89;97261.38;5067007;28;20492;-58
2022/11/07 04:23:50;;;;;;;3.25;1.20;;;;;;;9.74;95.34;97265.00;5066938;28;20610;-58
2022/11/07 04:29:01;;;;;;;4.65;1.33;;;;;;;9.90;94.13;97263.31;5066971;28;20654;-58
2022/11/07 04:31:28;;;;;;;3.03;0.90;;;;;;;9.90;94.23;97257.91;5067122;28;20124;-58
2022/11/07 04:33:55;;;;;;;4.40;1.20;;;;;;;9.86;94.28;97265.69;5066666;28;20067;-57
2022/11/07 04:36:21;;;;;;;3.22;1.02;;;;;;;9.81;94.33;97259.41;5065728;28;20547;-59
2022/11/07 04:38:48;;;;;;;2.55;1.10;;;;;;;9.85;94.42;97257.84;5061725;28;20366;-59
2022/11/07 04:41:19;;;;;;;4.00;1.10;;;;;;;9.76;94.72;97263.66;5046382;28;20041;-58
2022/11/07 04:43:46;;;;;;;2.47;1.02;;;;;;;9.76;94.65;97249.31;5047328;28;20402;-57
2022/11/07 04:46:13;;;;;;;2.95;1.35;;;;;;;9.67;95.06;97267.03;5046685;28;20512;-57
2022/11/07 04:48:40;;;;;;;2.65;1.23;;;;;;;9.67;95.13;97269.75;5063459;28;20131;-57
2022/11/07 04:51:12;;;;;;;7.32;1.52;;;;;;;9.68;95.03;97265.97;5065803;28;20082;-58
2022/11/07 04:53:39;;;;;;;3.72;1.30;;;;;;;9.55;96.07;97277.97;5067059;28;20132;-58
2022/11/07 04:56:05;;;;;;;2.97;1.00;;;;;;;9.46;96.66;97274.84;5066501;28;20076;-58
2022/11/07 04:58:32;;;;;;;4.45;1.17;;;;;;;9.54;96.41;97273.63;5066754;28;20576;-58
2022/11/07 05:00:58;;;;;;;2.95;1.77;;;;;;;9.58;95.96;97274.78;5065069;28;20060;-58
2022/11/07 05:03:25;;;;;;;3.38;1.20;;;;;;;9.62;95.59;97270.50;5066049;28;20063;-58
2022/11/07 05:05:51;;;;;;;5.00;1.15;;;;;;;9.57;95.88;97278.53;5064911;28;20136;-57
2022/11/07 05:08:18;;;;;;;2.50;1.08;;;;;;;9.58;96.03;97277.47;5065968;28;20533;-58
2022/11/07 05:10:44;;;;;;;4.82;1.00;;;;;;;9.58;95.95;97272.06;5046837;28;20055;-59
2022/11/07 05:13:11;;;;;;;3.33;1.60;;;;;;;9.56;96.03;97282.28;5044861;28;20500;-57
2022/11/07 05:15:39;;;;;;;3.35;1.10;;;;;;;9.46;96.59;97283.78;5046143;28;20071;-59
2022/11/07 05:18:05;;;;;;;4.30;1.20;;;;;;;9.44;97.04;97283.19;5045935;28;20064;-58
2022/11/07 05:20:37;;;;;;;2.08;0.90;;;;;;;9.45;96.94;97274.03;5065062;28;20072;-58
2022/11/07 05:23:20;;;;;;;2.60;1.00;;;;;;;9.48;97.08;97273.53;5066149;28;20565;-59
2022/11/07 05:25:49;;;;;;;4.55;1.63;;;;;;;9.46;97.11;97278.38;5062121;28;20236;-59
2022/11/07 05:28:27;;;;;;;2.35;1.10;;;;;;;9.40;97.48;97292.88;5048924;28;20436;-58
2022/11/07 05:31:03;;;;;;;3.78;1.13;;;;;;;9.44;97.64;97294.00;5057835;28;20091;-58
2022/11/07 05:33:30;;;;;;;4.55;1.63;;;;;;;9.38;98.22;97289.59;5050298;28;20080;-58
2022/11/07 05:36:06;;;;;;;4.28;1.10;;;;;;;9.54;97.88;97289.84;5045266;28;20075;-58
2022/11/07 05:38:33;;;;;;;3.95;1.35;;;;;;;9.51;97.65;97280.31;5045270;28;20299;-58
2022/11/07 05:41:02;;;;;;;3.40;1.13;;;;;;;9.44;98.19;97274.28;5045157;28;20045;-58
2022/11/07 05:43:29;;;;;;;3.60;1.40;;;;;;;9.37;98.43;97277.16;5043571;28;20119;-57
2022/11/07 05:45:59;;;;;;;3.60;1.20;;;;;;;9.12;100.00;97294.59;5045377;28;20128;-57
2022/11/07 05:48:26;;;;;;;4.30;1.33;;;;;;;9.19;99.99;97292.56;5060146;28;20386;-58
2022/11/07 05:50:52;;;;;;;2.42;0.90;;;;;;;9.16;100.00;97294.91;5065466;28;20067;-58
2022/11/07 05:53:20;;;;;;;5.03;1.27;;;;;;;9.15;100.00;97301.38;5065469;28;20075;-58
2022/11/07 05:55:47;;;;;;;2.90;1.27;;;;;;;9.13;100.00;97301.63;5065136;28;20062;-58
2022/11/07 05:58:14;;;;;;;3.75;1.40;;;;;;;9.22;100.00;97302.06;5065681;28;20079;-58
2022/11/07 06:00:41;;;;;;;4.13;1.42;;;;;;;9.25;99.77;97304.25;5065191;28;20116;-59
2022/11/07 06:03:08;;;;;;;3.60;1.55;;;;;;;9.25;99.83;97306.94;5065643;28;20041;-58
2022/11/07 06:05:40;;;;;;;4.53;1.45;;;;;;;9.39;99.27;97303.94;5065386;28;20048;-59
2022/11/07 06:08:09;;;;;;;2.83;1.15;;;;;;;9.51;99.02;97299.25;5063326;28;20110;-59
2022/11/07 06:10:37;;;;;;;3.97;1.13;;;;;;;9.58;98.56;97299.09;5054376;28;20086;-58
2022/11/07 06:13:06;;;;;;;5.82;1.30;;;;;;;9.63;98.02;97294.56;5062570;28;20523;-58
2022/11/07 06:15:34;;;;;;;2.97;1.30;;;;;;;9.48;99.02;97303.25;5076979;28;20044;-59
2022/11/07 06:18:03;;;;;;;2.53;1.30;;;;;;;9.37;100.00;97306.88;5063935;28;20535;-57
2022/11/07 06:20:30;;;;;;;5.55;1.38;;;;;;;9.29;100.00;97296.50;5065928;28;20145;-59
2022/11/07 06:22:58;;;;;;;2.22;1.00;;;;;;;9.35;100.00;97298.19;5062054;28;20059;-58
2022/11/07 06:25:26;;;;;;;3.20;1.45;;;;;;;9.43;99.87;97300.50;5054949;28;20110;-60
2022/11/07 06:27:52;;;;;;;2.90;1.00;;;;;;;9.35;100.00;97303.59;5058202;28;20070;-57
2022/11/07 06:30:19;;;;;;;3.63;1.30;;;;;;;9.32;100.00;97313.00;5048454;28;20632;-58
2022/11/07 06:32:45;;;;;;;4.50;1.10;;;;;;;9.33;100.00;97303.03;5053803;28;20064;-57
2022/11/07 06:35:13;;;;;;;4.53;1.20;;;;;;;9.34;100.00;97307.38;5076589;28;20567;-60
2022/11/07 06:37:39;;;;;;;4.05;1.20;;;;;;;9.40;99.68;97310.97;5070150;28;20048;-60
2022/11/07 06:40:06;;;;;;;3.05;1.58;;;;;;;9.41;99.49;97313.44;5064897;28;20072;-59
2022/11/07 06:42:33;;;;;;;1.90;1.13;;;;;;;9.44;99.39;97312.94;5050710;28;20068;-60
2022/11/07 06:44:59;;;;;;;3.30;1.30;;;;;;;9.47;99.29;97315.16;5053354;28;20124;-60
2022/11/07 06:47:26;;;;;;;7.68;1.45;;;;;;;9.44;99.35;97307.53;5056641;28;20076;-58
2022/11/07 06:49:52;;;;;;;6.10;1.60;;;;;;;9.44;99.49;97310.22;5056105;28;20238;-60
2022/11/07 06:52:19;;;;;;;3.75;1.20;;;;;;;9.49;99.27;97313.03;5058425;28;20091;-58
2022/11/07 06:54:45;;;;;;;3.22;1.02;;;;;;;9.52;99.34;97310.88;5056836;28;20383;-60
2022/11/07 06:57:12;;;;;;;3.47;1.17;;;;;;;9.49;99.57;97315.72;5055384;28;20484;-60
2022/11/07 06:59:38;;;;;;;4.10;1.40;;;;;;;9.35;100.00;97319.81;5054218;28;20041;-58
2022/11/07 07:02:04;;;;;;;3.95;1.30;;;;;;;9.32;100.00;97328.44;5055408;28;20067;-60
2022/11/07 07:04:31;;;;;;;4.15;1.33;;;;;;;9.34;100.00;97329.81;5058252;28;20121;-61
2022/11/07 07:06:58;;;;;;;6.68;1.48;;;;;;;9.37;100.00;97333.91;5066034;28;20072;-60
2022/11/07 07:09:24;;;;;;;4.40;1.60;;;;;;;9.29;100.00;97340.50;5057615;28;20040;-60
2022/11/07 07:11:51;;;;;;;3.53;1.00;;;;;;;9.30;100.00;97341.34;5073619;28;20074;-60
2022/11/07 07:14:17;;;;;;;3.05;1.02;;;;;;;9.36;100.00;97349.28;5072789;28;20515;-59
2022/11/07 07:16:43;;;;;;;3.20;1.05;;;;;;;9.28;100.00;97344.28;5062629;28;20127;-60
2022/11/07 07:19:11;;;;;;;9.27;1.98;;;;;;;9.30;100.00;97353.00;5061472;28;20584;-60
2022/11/07 07:21:38;;;;;;;4.43;1.60;;;;;;;9.33;100.00;97357.06;5065837;28;20519;-60
2022/11/07 07:24:04;;;;;;;2.63;1.17;;;;;;;9.43;100.00;97359.94;5049322;28;20051;-60
2022/11/07 07:26:31;;;;;;;8.32;1.20;;;;;;;9.43;100.00;97359.16;5047147;28;20079;-59
2022/11/07 07:28:57;;;;;;;6.25;1.65;;;;;;;9.37;100.00;97364.44;5048090;28;20508;-60
2022/11/07 07:31:29;;;;;;;4.78;1.40;;;;;;;9.25;100.00;97363.69;5053556;28;20128;-59
2022/11/07 07:33:56;;;;;;;4.38;1.50;;;;;;;9.28;100.00;97363.19;5065577;28;20044;-57
2022/11/07 07:36:23;;;;;;;4.00;1.23;;;;;;;9.26;100.00;97356.41;5059374;28;20072;-52
2022/11/07 07:38:50;;;;;;;3.72;1.33;;;;;;;9.24;100.00;97362.88;5051573;28;20588;-58
2022/11/07 07:41:18;;;;;;;3.40;1.40;;;;;;;9.34;100.00;97358.72;5060791;28;20628;-55
2022/11/07 07:43:44;;;;;;;3.92;1.50;;;;;;;9.43;100.00;97357.25;5059290;28;20076;-58
2022/11/07 07:46:18;;;;;;;5.30;1.38;;;;;;;9.53;100.00;97359.28;5064039;28;20480;-58
2022/11/07 07:48:44;;;;;;;4.28;1.40;;;;;;;9.52;100.00;97359.53;5063331;28;20040;-58
2022/11/07 07:51:11;;;;;;;6.80;1.60;;;;;;;9.59;100.00;97361.00;5063463;28;20455;-60
2022/11/07 07:53:37;;;;;;;3.67;1.35;;;;;;;9.62;100.00;97368.63;5060831;28;20402;-58
2022/11/07 07:56:06;;;;;;;4.43;1.27;;;;;;;9.71;100.00;97358.22;5059938;28;20123;-58
2022/11/07 07:58:32;;;;;;;6.88;1.42;;;;;;;9.80;100.00;97360.53;5063505;28;20119;-59
2022/11/07 08:00:59;;;;;;;5.47;1.40;;;;;;;9.87;99.86;97363.84;5060544;28;20582;-59
2022/11/07 08:03:26;;;;;;;4.28;1.25;;;;;;;9.89;99.70;97364.44;5063861;28;20049;-54
2022/11/07 08:06:01;;;;;;;4.80;1.23;;;;;;;9.89;99.62;97365.25;5064951;28;20115;-55
2022/11/07 08:08:27;;;;;;;6.05;1.60;;;;;;;9.93;99.32;97371.00;5064324;28;20135;-57
2022/11/07 08:11:04;;;;;;;4.28;1.77;;;;;;;9.98;98.89;97368.38;5062057;28;20128;-58
2022/11/07 08:13:31;;;;;;;3.25;1.17;;;;;;;10.04;98.49;97371.13;5059923;28;20093;-56
2022/11/07 08:16:00;;;;;;;5.28;1.73;;;;;;;9.99;98.85;97367.28;5064714;28;20080;-58
2022/11/07 08:18:27;;;;;;;11.52;1.95;;;;;;;9.94;98.46;97371.81;5061029;28;20037;-56
2022/11/07 08:20:54;;;;;;;4.45;1.52;;;;;;;9.95;98.70;97368.06;5062090;28;20204;-57
2022/11/07 08:23:22;;;;;;;7.22;1.70;;;;;;;9.97;98.66;97371.31;5055969;28;20507;-53
2022/11/07 08:25:55;;;;;;;8.82;1.83;;;;;;;9.95;98.50;97374.25;5067939;28;20484;-59
2022/11/07 08:28:24;;;;;;;4.78;1.90;;;;;;;9.92;98.99;97363.97;5047264;28;20082;-58
2022/11/07 08:31:10;;;;;;;5.97;1.42;;;;;;;9.96;98.65;97365.09;5058912;28;20064;-57
2022/11/07 08:33:38;;;;;;;7.57;1.60;;;;;;;10.04;98.58;97365.72;5056399;28;20045;-56
2022/11/07 08:36:05;;;;;;;5.28;1.10;;;;;;;10.12;98.01;97370.72;5056969;28;20036;-57
2022/11/07 08:38:34;;;;;;;5.65;1.73;;;;;;;10.21;97.77;97371.91;5067267;28;20071;-56
2022/11/07 08:41:00;;;;;;;4.22;1.58;;;;;;;10.32;96.93;97374.78;5065944;28;20081;-57
2022/11/07 08:43:27;;;;;;;8.20;2.13;;;;;;;10.35;96.26;97363.44;5066200;28;20048;-61
2022/11/07 08:45:55;;;;;;;4.10;1.40;;;;;;;10.47;95.19;97363.38;5056027;28;20409;-59
2022/11/07 08:48:22;;;;;;;7.70;1.38;;;;;;;10.53;95.61;97348.81;5063375;28;20052;-63
2022/11/07 08:50:53;;;;;;;3.25;1.30;;;;;;;10.59;94.81;97364.06;5078845;28;20476;-60
2022/11/07 08:53:20;;;;;;;7.17;1.50;;;;;;;10.69;94.52;97363.34;5065128;28;20135;-60
2022/11/07 08:55:47;;;;;;;10.77;1.40;;;;;;;10.75;94.46;97367.75;5062453;28;20293;-59
2022/11/07 08:58:14;;;;;;;5.30;1.40;;;;;;;10.82;93.22;97362.16;5063777;28;20044;-57
2022/11/07 09:00:41;;;;;;;5.55;1.33;;;;;;;10.87;92.57;97372.22;5063518;28;20048;-57
2022/11/07 09:03:10;;;;;;;5.65;1.75;;;;;;;10.96;92.64;97365.28;5059901;28;20049;-59
2022/11/07 09:05:57;;;;;;;5.78;1.25;;;;;;;10.88;92.50;97376.56;5063608;28;20050;-63
2022/11/07 09:08:24;;;;;;;3.90;1.10;;;;;;;10.87;92.30;97369.53;5073870;28;20047;-58
2022/11/07 09:10:50;;;;;;;9.68;1.90;;;;;;;10.89;92.18;97370.06;5063338;28;20044;-59
2022/11/07 09:13:19;;;;;;;5.88;1.30;;;;;;;10.94;92.08;97375.53;5063975;28;20131;-58
2022/11/07 09:15:46;;;;;;;4.40;1.33;;;;;;;11.02;91.31;97374.28;5060458;28;20051;-59
2022/11/07 09:18:17;;;;;;;6.28;2.42;;;;;;;11.11;91.06;97374.63;5070345;28;20688;-61
2022/11/07 09:20:44;;;;;;;3.08;1.08;;;;;;;11.21;90.24;97382.88;5063049;28;20221;-57
2022/11/07 09:23:10;;;;;;;4.90;1.10;;;;;;;11.19;89.94;97383.13;5063850;28;20075;-57
2022/11/07 09:25:37;;;;;;;4.70;1.35;;;;;;;11.35;89.09;97374.34;5058845;28;20040;-57
2022/11/07 09:28:04;;;;;;;6.78;1.80;;;;;;;11.25;89.17;97383.19;5055031;28;20824;-60
2022/11/07 09:30:30;;;;;;;4.63;1.55;;;;;;;11.34;87.71;97384.34;5056122;28;20041;-59
2022/11/07 09:32:57;;;;;;;4.55;0.90;;;;;;;11.30;88.07;97383.22;5054260;28;20044;-60
2022/11/07 09:35:24;;;;;;;8.75;1.70;;;;;;;11.36;88.00;97384.09;5054336;28;20542;-59
2022/11/07 09:37:50;;;;;;;4.40;0.93;;;;;;;11.38;88.58;97382.75;5054621;28;20113;-59
2022/11/07 09:40:28;;;;;;;8.25;1.35;;;;;;;11.56;87.15;97376.16;5056109;28;20090;-59
2022/11/07 09:43:13;;;;;;;5.40;1.13;;;;;;;11.71;86.41;97377.34;5049696;28;20044;-60
2022/11/07 09:45:53;;;;;;;3.60;1.15;;;;;;;11.67;86.16;97373.50;5071369;28;20451;-59
2022/11/07 09:48:24;;;;;;;3.63;1.27;;;;;;;11.78;84.88;97377.94;5055599;28;20527;-57
2022/11/07 09:50:51;;;;;;;5.53;1.10;;;;;;;11.84;84.71;97378.81;5060186;28;20674;-58
2022/11/07 09:53:49;;;;;;;7.47;1.42;;;;;;;11.75;85.12;97372.22;5063455;28;20044;-54
2022/11/07 09:56:16;;;;;;;5.47;0.85;;;;;;;11.83;84.11;97372.56;5062947;28;20589;-62
2022/11/07 09:58:50;;;;;;;3.88;1.10;;;;;;;11.90;83.22;97366.91;5060919;28;20135;-60
2022/11/07 10:01:19;;;;;;;3.92;1.10;;;;;;;12.00;81.53;97376.19;5053398;28;20037;-59
2022/11/07 10:03:46;;;;;;;2.38;0.73;;;;;;;12.00;82.02;97374.31;5048894;28;20103;-61
2022/11/07 10:06:48;;;;;;;7.55;1.10;;;;;;;12.13;80.78;97374.97;5056696;28;20415;-58
2022/11/07 10:09:23;;;;;;;6.03;1.08;;;;;;;12.11;80.70;97375.22;5066152;28;20156;-56
2022/11/07 10:12:26;;;;;;;7.32;2.03;;;;;;;12.12;80.44;97382.28;5061864;28;20076;-59
2022/11/07 10:15:15;;;;;;;4.30;0.88;;;;;;;12.22;78.86;97376.91;5051166;28;20064;-57
2022/11/07 10:17:58;;;;;;;2.80;0.85;;;;;;;12.22;78.98;97371.50;5061627;28;20110;-58
2022/11/07 10:20:36;;;;;;;6.40;1.65;;;;;;;12.24;79.34;97368.50;5063793;28;20044;-58
2022/11/07 10:23:26;;;;;;;2.05;0.70;;;;;;;12.37;79.48;97364.50;5066629;28;20079;-56
2022/11/07 10:26:05;;;;;;;4.78;1.17;;;;;;;12.52;79.76;97371.91;5060317;28;20427;-57
2022/11/07 10:28:40;;;;;;;6.03;1.20;;;;;;;12.57;79.33;97361.06;5055474;28;20516;-58
2022/11/07 10:31:10;;;;;;;5.68;1.55;;;;;;;12.69;77.74;97366.28;5066316;28;20113;-58
2022/11/07 10:34:01;;;;;;;4.20;1.05;;;;;;;12.70;78.03;97359.75;5066329;28;20135;-60
2022/11/07 10:36:30;;;;;;;4.32;0.80;;;;;;;12.70;78.18;97351.59;5066196;28;20064;-58
2022/11/07 10:38:57;;;;;;;3.08;0.90;;;;;;;12.74;77.36;97358.16;5067011;28;20091;-58
2022/11/07 10:41:26;;;;;;;3.88;1.00;;;;;;;12.73;76.45;97355.69;5053082;28;20041;-58
2022/11/07 10:43:57;;;;;;;3.63;0.88;;;;;;;12.82;75.80;97348.66;5063423;28;20052;-58
2022/11/07 10:46:45;;;;;;;3.78;0.85;;;;;;;13.00;76.17;97346.53;5066799;28;20557;-59
2022/11/07 10:49:23;;;;;;;3.40;0.70;;;;;;;12.97;76.03;97350.59;5067141;28;20070;-58
2022/11/07 10:51:50;;;;;;;5.25;1.27;;;;;;;13.01;76.67;97350.88;5066728;28;20080;-58
2022/11/07 10:54:35;;;;;;;5.07;1.13;;;;;;;12.84;77.00;97351.09;5066626;28;20530;-58
2022/11/07 10:57:14;;;;;;;4.78;0.77;;;;;;;12.87;76.40;97359.53;5069242;28;20082;-58
2022/11/07 10:59:57;;;;;;;4.28;0.98;;;;;;;12.72;76.30;97362.22;5066523;28;20078;-58
2022/11/07 11:02:31;;;;;;;3.45;0.90;;;;;;;12.69;77.36;97349.97;5065307;28;20128;-58
2022/11/07 11:05:04;;;;;;;4.15;0.80;;;;;;;12.77;77.49;97354.06;5065141;28;20044;-58
2022/11/07 11:07:39;;;;;;;3.75;0.80;;;;;;;12.96;77.78;97353.56;5066566;28;20825;-58
2022/11/07 11:10:27;;;;;;;4.53;1.05;;;;;;;13.09;77.75;97363.13;5065985;28;20515;-57
2022/11/07 11:12:53;;;;;;;4.63;0.80;;;;;;;13.11;76.06;97364.50;5065454;28;20490;-57
2022/11/07 11:15:26;;;;;;;6.50;0.93;;;;;;;13.27;75.64;97353.66;5066449;28;20047;-58
2022/11/07 11:18:05;;;;;;;5.32;0.77;;;;;;;13.27;75.02;97357.16;5063558;28;20036;-56
2022/11/07 11:20:34;;;;;;;1.35;0.50;;;;;;;13.31;74.33;97352.03;5066949;28;20555;-59
2022/11/07 11:23:04;;;;;;;2.40;0.63;;;;;;;13.34;74.25;97356.91;5066133;28;20087;-58
2022/11/07 11:25:30;;;;;;;4.53;0.70;;;;;;;13.43;73.69;97350.94;5066059;28;20391;-58
2022/11/07 11:28:03;;;;;;;5.75;0.77;;;;;;;13.33;75.03;97354.44;5062862;28;20496;-58
2022/11/07 11:30:32;;;;;;;3.90;0.68;;;;;;;13.37;75.35;97348.22;5065858;28;20072;-58
2022/11/07 11:33:10;;;;;;;3.63;0.93;;;;;;;13.23;74.47;97355.28;5063523;28;20140;-58
2022/11/07 11:35:43;;;;;;;3.60;0.60;;;;;;;13.14;74.41;97357.69;5064739;28;20076;-59
2022/11/07 11:38:22;;;;;;;2.58;0.68;;;;;;;13.22;75.66;97353.63;5066881;28;20055;-59
2022/11/07 11:40:54;;;;;;;5.28;0.80;;;;;;;13.12;75.48;97349.00;5065550;28;20464;-59
2022/11/07 11:43:43;;;;;;;4.43;0.88;;;;;;;13.10;76.01;97349.28;5066037;28;20558;-59
2022/11/07 11:46:19;;;;;;;3.25;0.75;;;;;;;13.20;75.47;97356.59;5065197;28;20346;-59
2022/11/07 11:49:12;;;;;;;4.03;0.70;;;;;;;13.21;75.88;97350.09;5066157;28;20401;-59
2022/11/07 11:51:44;;;;;;;2.60;0.95;;;;;;;13.36;73.28;97348.47;5077933;28;20129;-59
2022/11/07 11:54:13;;;;;;;2.05;0.70;;;;;;;13.45;72.14;97348.78;5065620;28;20131;-59
2022/11/07 11:56:52;;;;;;;1.95;0.60;;;;;;;13.55;71.32;97342.53;5064157;28;20041;-59